sensor_id;sensor_type;location;lat;lon;timestamp;P1;durP1;ratioP1;P2;durP2;ratioP2
3347;SDS011;1687;49.540;8.574;2023-04-25T00:01:17;8.17;;;3.40;;
3347;SDS011;1687;49.540;8.574;2023-04-25T00:03:43;7.73;;;3.30;;
3347;SDS011;1687;49.540;8.574;2023-04-25T00:06:10;5.50;;;3.20;;
3347;SDS011;1687;49.540;8.574;2023-04-25T00:08:36;8.27;;;3.30;;
3347;SDS011;1687;49.540;8.574;2023-04-25T00:11:02;10.10;;;4.67;;
3347;SDS011;1687;49.540;8.574;2023-04-25T00:13:28;7.80;;;3.67;;
3347;SDS011;1687;49.540;8.574;2023-04-25T00:15:54;9.20;;;3.57;;
3347;SDS011;1687;49.540;8.574;2023-04-25T00:18:21;8.40;;;4.17;;
3347;SDS011;1687;49.540;8.574;2023-04-25T00:20:47;9.73;;;4.37;;
3347;SDS011;1687;49.540;8.574;2023-04-25T00:23:13;13.27;;;3.83;;
3347;SDS011;1687;49.540;8.574;2023-04-25T00:25:43;15.60;;;4.97;;
3347;SDS011;1687;49.540;8.574;2023-04-25T00:28:11;6.70;;;3.40;;
3347;SDS011;1687;49.540;8.574;2023-04-25T00:30:37;7.23;;;3.30;;
3347;SDS011;1687;49.540;8.574;2023-04-25T00:33:04;6.17;;;3.83;;
3347;SDS011;1687;49.540;8.574;2023-04-25T00:35:30;9.30;;;4.30;;
3347;SDS011;1687;49.540;8.574;2023-04-25T00:37:55;12.07;;;4.83;;
3347;SDS011;1687;49.540;8.574;2023-04-25T00:40:21;7.27;;;3.60;;
3347;SDS011;1687;49.540;8.574;2023-04-25T00:42:47;9.73;;;4.80;;
3347;SDS011;1687;49.540;8.574;2023-04-25T00:45:13;7.97;;;4.30;;
3347;SDS011;1687;49.540;8.574;2023-04-25T00:47:40;7.20;;;4.80;;
3347;SDS011;1687;49.540;8.574;2023-04-25T00:50:07;9.07;;;4.10;;
3347;SDS011;1687;49.540;8.574;2023-04-25T00:52:33;10.10;;;3.80;;
3347;SDS011;1687;49.540;8.574;2023-04-25T00:54:59;6.80;;;3.40;;
3347;SDS011;1687;49.540;8.574;2023-04-25T00:57:25;8.87;;;4.33;;
3347;SDS011;1687;49.540;8.574;2023-04-25T00:59:51;7.10;;;3.80;;
3347;SDS011;1687;49.540;8.574;2023-04-25T01:02:19;5.30;;;3.20;;
3347;SDS011;1687;49.540;8.574;2023-04-25T01:04:45;12.83;;;3.90;;
3347;SDS011;1687;49.540;8.574;2023-04-25T01:07:12;8.93;;;4.30;;
3347;SDS011;1687;49.540;8.574;2023-04-25T01:09:40;7.67;;;3.60;;
3347;SDS011;1687;49.540;8.574;2023-04-25T01:12:06;10.13;;;4.50;;
3347;SDS011;1687;49.540;8.574;2023-04-25T01:14:32;9.73;;;4.60;;
3347;SDS011;1687;49.540;8.574;2023-04-25T01:16:58;9.03;;;3.67;;
3347;SDS011;1687;49.540;8.574;2023-04-25T01:19:24;13.50;;;4.27;;
3347;SDS011;1687;49.540;8.574;2023-04-25T01:21:50;9.47;;;4.63;;
3347;SDS011;1687;49.540;8.574;2023-04-25T01:24:17;9.40;;;4.00;;
3347;SDS011;1687;49.540;8.574;2023-04-25T01:26:43;9.83;;;4.50;;
3347;SDS011;1687;49.540;8.574;2023-04-25T01:29:18;11.10;;;4.70;;
3347;SDS011;1687;49.540;8.574;2023-04-25T01:31:45;14.77;;;4.80;;
3347;SDS011;1687;49.540;8.574;2023-04-25T01:34:14;9.50;;;4.93;;
3347;SDS011;1687;49.540;8.574;2023-04-25T01:36:40;13.17;;;4.67;;
3347;SDS011;1687;49.540;8.574;2023-04-25T01:39:06;9.03;;;4.30;;
3347;SDS011;1687;49.540;8.574;2023-04-25T01:41:32;9.33;;;5.10;;
3347;SDS011;1687;49.540;8.574;2023-04-25T01:43:59;13.90;;;4.77;;
3347;SDS011;1687;49.540;8.574;2023-04-25T01:46:25;10.30;;;5.23;;
3347;SDS011;1687;49.540;8.574;2023-04-25T01:48:51;13.87;;;6.37;;
3347;SDS011;1687;49.540;8.574;2023-04-25T01:51:17;10.53;;;5.13;;
3347;SDS011;1687;49.540;8.574;2023-04-25T01:53:43;11.37;;;5.40;;
3347;SDS011;1687;49.540;8.574;2023-04-25T01:56:09;11.83;;;4.50;;
3347;SDS011;1687;49.540;8.574;2023-04-25T01:58:35;8.17;;;4.33;;
3347;SDS011;1687;49.540;8.574;2023-04-25T02:01:01;7.83;;;4.07;;
3347;SDS011;1687;49.540;8.574;2023-04-25T02:03:26;12.27;;;4.60;;
3347;SDS011;1687;49.540;8.574;2023-04-25T02:05:54;11.07;;;5.07;;
3347;SDS011;1687;49.540;8.574;2023-04-25T02:08:20;11.40;;;5.23;;
3347;SDS011;1687;49.540;8.574;2023-04-25T02:10:45;8.43;;;4.40;;
3347;SDS011;1687;49.540;8.574;2023-04-25T02:13:11;13.10;;;4.80;;
3347;SDS011;1687;49.540;8.574;2023-04-25T02:15:36;8.90;;;4.80;;
3347;SDS011;1687;49.540;8.574;2023-04-25T02:18:02;8.27;;;4.37;;
3347;SDS011;1687;49.540;8.574;2023-04-25T02:20:29;10.20;;;4.83;;
3347;SDS011;1687;49.540;8.574;2023-04-25T02:22:55;8.27;;;4.57;;
3347;SDS011;1687;49.540;8.574;2023-04-25T02:25:21;6.93;;;3.70;;
3347;SDS011;1687;49.540;8.574;2023-04-25T02:27:47;12.70;;;5.40;;
3347;SDS011;1687;49.540;8.574;2023-04-25T02:30:14;11.43;;;5.53;;
3347;SDS011;1687;49.540;8.574;2023-04-25T02:32:40;13.90;;;5.37;;
3347;SDS011;1687;49.540;8.574;2023-04-25T02:35:06;8.60;;;5.13;;
3347;SDS011;1687;49.540;8.574;2023-04-25T02:37:33;11.20;;;4.47;;
3347;SDS011;1687;49.540;8.574;2023-04-25T02:40:00;8.10;;;4.10;;
3347;SDS011;1687;49.540;8.574;2023-04-25T02:42:27;11.73;;;5.80;;
3347;SDS011;1687;49.540;8.574;2023-04-25T02:44:53;12.83;;;5.90;;
3347;SDS011;1687;49.540;8.574;2023-04-25T02:47:19;13.53;;;5.73;;
3347;SDS011;1687;49.540;8.574;2023-04-25T02:49:45;13.10;;;4.57;;
3347;SDS011;1687;49.540;8.574;2023-04-25T02:52:11;14.03;;;6.20;;
3347;SDS011;1687;49.540;8.574;2023-04-25T02:54:37;15.20;;;5.43;;
3347;SDS011;1687;49.540;8.574;2023-04-25T02:57:04;10.70;;;5.03;;
3347;SDS011;1687;49.540;8.574;2023-04-25T02:59:30;11.27;;;6.97;;
3347;SDS011;1687;49.540;8.574;2023-04-25T03:01:55;11.57;;;5.77;;
3347;SDS011;1687;49.540;8.574;2023-04-25T03:04:21;10.30;;;5.97;;
3347;SDS011;1687;49.540;8.574;2023-04-25T03:06:48;15.83;;;6.67;;
3347;SDS011;1687;49.540;8.574;2023-04-25T03:09:15;13.53;;;5.77;;
3347;SDS011;1687;49.540;8.574;2023-04-25T03:11:41;11.70;;;6.77;;
3347;SDS011;1687;49.540;8.574;2023-04-25T03:14:07;16.10;;;7.00;;
3347;SDS011;1687;49.540;8.574;2023-04-25T03:16:32;12.50;;;6.57;;
3347;SDS011;1687;49.540;8.574;2023-04-25T03:18:58;13.97;;;7.27;;
3347;SDS011;1687;49.540;8.574;2023-04-25T03:21:24;15.10;;;5.80;;
3347;SDS011;1687;49.540;8.574;2023-04-25T03:23:51;13.63;;;5.93;;
3347;SDS011;1687;49.540;8.574;2023-04-25T03:26:17;16.30;;;6.83;;
3347;SDS011;1687;49.540;8.574;2023-04-25T03:28:42;11.20;;;5.20;;
3347;SDS011;1687;49.540;8.574;2023-04-25T03:31:08;13.37;;;6.77;;
3347;SDS011;1687;49.540;8.574;2023-04-25T03:33:34;15.50;;;7.20;;
3347;SDS011;1687;49.540;8.574;2023-04-25T03:35:59;12.17;;;6.47;;
3347;SDS011;1687;49.540;8.574;2023-04-25T03:38:25;12.30;;;5.77;;
3347;SDS011;1687;49.540;8.574;2023-04-25T03:40:51;13.40;;;6.77;;
3347;SDS011;1687;49.540;8.574;2023-04-25T03:43:17;12.83;;;6.60;;
3347;SDS011;1687;49.540;8.574;2023-04-25T03:45:42;14.67;;;6.90;;
3347;SDS011;1687;49.540;8.574;2023-04-25T03:48:08;20.87;;;6.30;;
3347;SDS011;1687;49.540;8.574;2023-04-25T03:50:34;15.03;;;7.50;;
3347;SDS011;1687;49.540;8.574;2023-04-25T03:53:00;12.43;;;6.40;;
3347;SDS011;1687;49.540;8.574;2023-04-25T03:55:25;12.90;;;6.70;;
3347;SDS011;1687;49.540;8.574;2023-04-25T03:57:51;12.67;;;6.00;;
3347;SDS011;1687;49.540;8.574;2023-04-25T04:00:17;15.10;;;6.40;;
3347;SDS011;1687;49.540;8.574;2023-04-25T04:02:42;15.13;;;7.13;;
3347;SDS011;1687;49.540;8.574;2023-04-25T04:05:08;15.23;;;7.60;;
3347;SDS011;1687;49.540;8.574;2023-04-25T04:07:34;17.27;;;8.20;;
3347;SDS011;1687;49.540;8.574;2023-04-25T04:10:05;16.33;;;8.30;;
3347;SDS011;1687;49.540;8.574;2023-04-25T04:12:32;14.83;;;7.73;;
3347;SDS011;1687;49.540;8.574;2023-04-25T04:14:58;14.00;;;6.63;;
3347;SDS011;1687;49.540;8.574;2023-04-25T04:17:24;15.50;;;6.00;;
3347;SDS011;1687;49.540;8.574;2023-04-25T04:19:50;17.07;;;6.00;;
3347;SDS011;1687;49.540;8.574;2023-04-25T04:22:15;17.47;;;7.37;;
3347;SDS011;1687;49.540;8.574;2023-04-25T04:24:41;11.77;;;5.80;;
3347;SDS011;1687;49.540;8.574;2023-04-25T04:27:11;15.43;;;6.40;;
3347;SDS011;1687;49.540;8.574;2023-04-25T04:29:37;14.37;;;6.43;;
3347;SDS011;1687;49.540;8.574;2023-04-25T04:32:03;11.87;;;6.90;;
3347;SDS011;1687;49.540;8.574;2023-04-25T04:34:29;14.57;;;6.90;;
3347;SDS011;1687;49.540;8.574;2023-04-25T04:36:55;13.40;;;6.77;;
3347;SDS011;1687;49.540;8.574;2023-04-25T04:39:22;19.07;;;7.67;;
3347;SDS011;1687;49.540;8.574;2023-04-25T04:41:47;13.37;;;6.10;;
3347;SDS011;1687;49.540;8.574;2023-04-25T04:44:13;16.63;;;7.23;;
3347;SDS011;1687;49.540;8.574;2023-04-25T04:46:39;15.57;;;6.47;;
3347;SDS011;1687;49.540;8.574;2023-04-25T04:49:07;12.00;;;5.80;;
3347;SDS011;1687;49.540;8.574;2023-04-25T04:51:34;15.13;;;7.33;;
3347;SDS011;1687;49.540;8.574;2023-04-25T04:54:01;11.60;;;6.20;;
3347;SDS011;1687;49.540;8.574;2023-04-25T04:56:28;12.80;;;6.70;;
3347;SDS011;1687;49.540;8.574;2023-04-25T04:58:58;15.10;;;7.10;;
3347;SDS011;1687;49.540;8.574;2023-04-25T05:01:24;15.40;;;5.70;;
3347;SDS011;1687;49.540;8.574;2023-04-25T05:03:50;20.37;;;6.80;;
3347;SDS011;1687;49.540;8.574;2023-04-25T05:06:17;15.17;;;7.53;;
3347;SDS011;1687;49.540;8.574;2023-04-25T05:08:44;17.17;;;6.77;;
3347;SDS011;1687;49.540;8.574;2023-04-25T05:11:10;13.07;;;5.77;;
3347;SDS011;1687;49.540;8.574;2023-04-25T05:13:36;13.87;;;7.47;;
3347;SDS011;1687;49.540;8.574;2023-04-25T05:16:02;13.00;;;6.80;;
3347;SDS011;1687;49.540;8.574;2023-04-25T05:18:27;14.23;;;6.63;;
3347;SDS011;1687;49.540;8.574;2023-04-25T05:20:53;15.30;;;7.03;;
3347;SDS011;1687;49.540;8.574;2023-04-25T05:23:19;15.70;;;6.97;;
3347;SDS011;1687;49.540;8.574;2023-04-25T05:25:44;19.23;;;7.50;;
3347;SDS011;1687;49.540;8.574;2023-04-25T05:28:11;17.10;;;7.53;;
3347;SDS011;1687;49.540;8.574;2023-04-25T05:30:37;23.53;;;10.77;;
3347;SDS011;1687;49.540;8.574;2023-04-25T05:33:03;16.63;;;8.30;;
3347;SDS011;1687;49.540;8.574;2023-04-25T05:35:29;12.00;;;6.47;;
3347;SDS011;1687;49.540;8.574;2023-04-25T05:37:55;12.37;;;6.67;;
3347;SDS011;1687;49.540;8.574;2023-04-25T05:40:20;16.77;;;7.53;;
3347;SDS011;1687;49.540;8.574;2023-04-25T05:42:46;16.60;;;6.80;;
3347;SDS011;1687;49.540;8.574;2023-04-25T05:45:12;18.67;;;8.53;;
3347;SDS011;1687;49.540;8.574;2023-04-25T05:47:38;17.40;;;7.40;;
3347;SDS011;1687;49.540;8.574;2023-04-25T05:50:03;15.17;;;7.23;;
3347;SDS011;1687;49.540;8.574;2023-04-25T05:52:30;14.73;;;7.90;;
3347;SDS011;1687;49.540;8.574;2023-04-25T05:54:55;17.90;;;8.03;;
3347;SDS011;1687;49.540;8.574;2023-04-25T05:57:25;17.83;;;7.13;;
3347;SDS011;1687;49.540;8.574;2023-04-25T05:59:52;16.70;;;7.13;;
3347;SDS011;1687;49.540;8.574;2023-04-25T06:02:19;13.60;;;7.13;;
3347;SDS011;1687;49.540;8.574;2023-04-25T06:04:46;16.10;;;7.17;;
3347;SDS011;1687;49.540;8.574;2023-04-25T06:07:14;15.93;;;7.13;;
3347;SDS011;1687;49.540;8.574;2023-04-25T06:09:40;15.70;;;8.63;;
3347;SDS011;1687;49.540;8.574;2023-04-25T06:12:06;15.20;;;6.57;;
3347;SDS011;1687;49.540;8.574;2023-04-25T06:14:32;13.00;;;6.20;;
3347;SDS011;1687;49.540;8.574;2023-04-25T06:16:59;16.33;;;6.97;;
3347;SDS011;1687;49.540;8.574;2023-04-25T06:19:31;10.77;;;4.77;;
3347;SDS011;1687;49.540;8.574;2023-04-25T06:22:02;12.40;;;6.60;;
3347;SDS011;1687;49.540;8.574;2023-04-25T06:24:28;16.20;;;6.20;;
3347;SDS011;1687;49.540;8.574;2023-04-25T06:26:54;9.57;;;5.70;;
3347;SDS011;1687;49.540;8.574;2023-04-25T06:29:20;18.87;;;7.00;;
3347;SDS011;1687;49.540;8.574;2023-04-25T06:31:45;12.80;;;5.70;;
3347;SDS011;1687;49.540;8.574;2023-04-25T06:34:11;18.00;;;6.40;;
3347;SDS011;1687;49.540;8.574;2023-04-25T06:36:37;12.50;;;4.87;;
3347;SDS011;1687;49.540;8.574;2023-04-25T06:39:03;11.60;;;5.63;;
3347;SDS011;1687;49.540;8.574;2023-04-25T06:41:28;10.90;;;5.13;;
3347;SDS011;1687;49.540;8.574;2023-04-25T06:43:54;14.37;;;6.80;;
3347;SDS011;1687;49.540;8.574;2023-04-25T06:46:20;18.00;;;7.40;;
3347;SDS011;1687;49.540;8.574;2023-04-25T06:48:46;13.30;;;6.00;;
3347;SDS011;1687;49.540;8.574;2023-04-25T06:51:11;13.47;;;5.27;;
3347;SDS011;1687;49.540;8.574;2023-04-25T06:53:38;19.20;;;5.20;;
3347;SDS011;1687;49.540;8.574;2023-04-25T06:56:04;20.60;;;7.07;;
3347;SDS011;1687;49.540;8.574;2023-04-25T06:58:30;16.07;;;4.60;;
3347;SDS011;1687;49.540;8.574;2023-04-25T07:00:56;12.60;;;5.90;;
3347;SDS011;1687;49.540;8.574;2023-04-25T07:03:22;12.23;;;5.77;;
3347;SDS011;1687;49.540;8.574;2023-04-25T07:05:48;11.27;;;4.93;;
3347;SDS011;1687;49.540;8.574;2023-04-25T07:08:15;11.33;;;5.50;;
3347;SDS011;1687;49.540;8.574;2023-04-25T07:10:40;16.40;;;5.90;;
3347;SDS011;1687;49.540;8.574;2023-04-25T07:13:06;11.40;;;5.60;;
3347;SDS011;1687;49.540;8.574;2023-04-25T07:15:32;10.93;;;4.57;;
3347;SDS011;1687;49.540;8.574;2023-04-25T07:17:58;12.93;;;6.20;;
3347;SDS011;1687;49.540;8.574;2023-04-25T07:20:24;17.03;;;6.10;;
3347;SDS011;1687;49.540;8.574;2023-04-25T07:22:50;11.63;;;5.23;;
3347;SDS011;1687;49.540;8.574;2023-04-25T07:25:16;12.53;;;5.87;;
3347;SDS011;1687;49.540;8.574;2023-04-25T07:27:42;9.63;;;5.10;;
3347;SDS011;1687;49.540;8.574;2023-04-25T07:30:08;13.50;;;5.40;;
3347;SDS011;1687;49.540;8.574;2023-04-25T07:32:34;15.10;;;6.10;;
3347;SDS011;1687;49.540;8.574;2023-04-25T07:35:00;23.87;;;6.90;;
3347;SDS011;1687;49.540;8.574;2023-04-25T07:37:26;32.10;;;9.07;;
3347;SDS011;1687;49.540;8.574;2023-04-25T07:39:52;17.40;;;5.93;;
3347;SDS011;1687;49.540;8.574;2023-04-25T07:42:18;16.00;;;5.70;;
3347;SDS011;1687;49.540;8.574;2023-04-25T07:44:43;24.10;;;6.70;;
3347;SDS011;1687;49.540;8.574;2023-04-25T07:47:09;14.10;;;4.63;;
3347;SDS011;1687;49.540;8.574;2023-04-25T07:49:38;10.37;;;4.70;;
3347;SDS011;1687;49.540;8.574;2023-04-25T07:52:05;7.80;;;4.40;;
3347;SDS011;1687;49.540;8.574;2023-04-25T07:54:31;18.37;;;5.10;;
3347;SDS011;1687;49.540;8.574;2023-04-25T07:56:57;13.70;;;4.83;;
3347;SDS011;1687;49.540;8.574;2023-04-25T07:59:23;8.73;;;4.00;;
3347;SDS011;1687;49.540;8.574;2023-04-25T08:01:49;17.53;;;5.03;;
3347;SDS011;1687;49.540;8.574;2023-04-25T08:04:15;21.50;;;4.50;;
3347;SDS011;1687;49.540;8.574;2023-04-25T08:06:41;15.20;;;5.27;;
3347;SDS011;1687;49.540;8.574;2023-04-25T08:09:07;16.17;;;4.10;;
3347;SDS011;1687;49.540;8.574;2023-04-25T08:11:34;12.50;;;4.40;;
3347;SDS011;1687;49.540;8.574;2023-04-25T08:14:00;7.40;;;3.70;;
3347;SDS011;1687;49.540;8.574;2023-04-25T08:16:26;13.27;;;3.97;;
3347;SDS011;1687;49.540;8.574;2023-04-25T08:18:52;15.43;;;3.80;;
3347;SDS011;1687;49.540;8.574;2023-04-25T08:21:18;10.10;;;4.10;;
3347;SDS011;1687;49.540;8.574;2023-04-25T08:23:44;12.33;;;4.00;;
3347;SDS011;1687;49.540;8.574;2023-04-25T08:26:10;10.80;;;3.73;;
3347;SDS011;1687;49.540;8.574;2023-04-25T08:28:36;15.70;;;4.10;;
3347;SDS011;1687;49.540;8.574;2023-04-25T08:31:01;8.17;;;3.60;;
3347;SDS011;1687;49.540;8.574;2023-04-25T08:33:27;13.20;;;4.37;;
3347;SDS011;1687;49.540;8.574;2023-04-25T08:35:53;13.33;;;3.83;;
3347;SDS011;1687;49.540;8.574;2023-04-25T08:38:19;23.10;;;5.10;;
3347;SDS011;1687;49.540;8.574;2023-04-25T08:40:45;12.73;;;4.50;;
3347;SDS011;1687;49.540;8.574;2023-04-25T08:43:16;22.07;;;3.70;;
3347;SDS011;1687;49.540;8.574;2023-04-25T08:45:44;14.03;;;5.33;;
3347;SDS011;1687;49.540;8.574;2023-04-25T08:48:12;9.53;;;2.40;;
3347;SDS011;1687;49.540;8.574;2023-04-25T08:50:58;6.87;;;3.10;;
3347;SDS011;1687;49.540;8.574;2023-04-25T08:53:28;7.47;;;2.97;;
3347;SDS011;1687;49.540;8.574;2023-04-25T08:55:56;10.20;;;4.77;;
3347;SDS011;1687;49.540;8.574;2023-04-25T08:58:24;9.50;;;3.40;;
3347;SDS011;1687;49.540;8.574;2023-04-25T09:00:50;6.77;;;3.20;;
3347;SDS011;1687;49.540;8.574;2023-04-25T09:03:17;8.90;;;3.63;;
3347;SDS011;1687;49.540;8.574;2023-04-25T09:05:43;11.87;;;4.20;;
3347;SDS011;1687;49.540;8.574;2023-04-25T09:08:09;7.50;;;3.73;;
3347;SDS011;1687;49.540;8.574;2023-04-25T09:10:36;6.57;;;3.40;;
3347;SDS011;1687;49.540;8.574;2023-04-25T09:13:12;10.90;;;3.87;;
3347;SDS011;1687;49.540;8.574;2023-04-25T09:15:48;11.40;;;3.40;;
3347;SDS011;1687;49.540;8.574;2023-04-25T09:18:37;9.33;;;2.80;;
3347;SDS011;1687;49.540;8.574;2023-04-25T09:21:09;10.00;;;3.90;;
3347;SDS011;1687;49.540;8.574;2023-04-25T09:23:40;7.57;;;3.60;;
3347;SDS011;1687;49.540;8.574;2023-04-25T09:26:15;15.17;;;4.60;;
3347;SDS011;1687;49.540;8.574;2023-04-25T09:28:42;6.53;;;3.70;;
3347;SDS011;1687;49.540;8.574;2023-04-25T09:31:11;10.90;;;3.13;;
3347;SDS011;1687;49.540;8.574;2023-04-25T09:33:46;20.07;;;4.37;;
3347;SDS011;1687;49.540;8.574;2023-04-25T09:36:12;17.60;;;4.60;;
3347;SDS011;1687;49.540;8.574;2023-04-25T09:38:42;9.63;;;3.60;;
3347;SDS011;1687;49.540;8.574;2023-04-25T09:41:09;16.17;;;4.20;;
3347;SDS011;1687;49.540;8.574;2023-04-25T09:43:36;4.13;;;2.40;;
3347;SDS011;1687;49.540;8.574;2023-04-25T09:46:02;8.57;;;3.63;;
3347;SDS011;1687;49.540;8.574;2023-04-25T09:48:33;17.03;;;4.17;;
3347;SDS011;1687;49.540;8.574;2023-04-25T09:53:41;12.53;;;3.77;;
3347;SDS011;1687;49.540;8.574;2023-04-25T09:56:10;8.53;;;3.97;;
3347;SDS011;1687;49.540;8.574;2023-04-25T09:58:38;6.27;;;3.70;;
3347;SDS011;1687;49.540;8.574;2023-04-25T10:01:09;9.20;;;3.57;;
3347;SDS011;1687;49.540;8.574;2023-04-25T10:03:39;9.10;;;3.70;;
3347;SDS011;1687;49.540;8.574;2023-04-25T10:06:13;9.50;;;4.03;;
3347;SDS011;1687;49.540;8.574;2023-04-25T10:08:44;28.07;;;5.17;;
3347;SDS011;1687;49.540;8.574;2023-04-25T10:11:10;9.23;;;3.50;;
3347;SDS011;1687;49.540;8.574;2023-04-25T10:13:39;11.50;;;4.80;;
3347;SDS011;1687;49.540;8.574;2023-04-25T10:16:05;10.63;;;3.70;;
3347;SDS011;1687;49.540;8.574;2023-04-25T10:18:31;8.33;;;3.50;;
3347;SDS011;1687;49.540;8.574;2023-04-25T10:20:59;15.80;;;4.30;;
3347;SDS011;1687;49.540;8.574;2023-04-25T10:23:26;5.87;;;2.97;;
3347;SDS011;1687;49.540;8.574;2023-04-25T10:25:54;7.50;;;3.97;;
3347;SDS011;1687;49.540;8.574;2023-04-25T10:28:20;11.10;;;3.80;;
3347;SDS011;1687;49.540;8.574;2023-04-25T10:31:02;8.00;;;3.47;;
3347;SDS011;1687;49.540;8.574;2023-04-25T10:33:33;10.33;;;4.70;;
3347;SDS011;1687;49.540;8.574;2023-04-25T10:36:11;8.93;;;4.27;;
3347;SDS011;1687;49.540;8.574;2023-04-25T10:38:46;10.60;;;4.93;;
3347;SDS011;1687;49.540;8.574;2023-04-25T10:41:15;13.37;;;5.53;;
3347;SDS011;1687;49.540;8.574;2023-04-25T10:43:48;9.70;;;3.80;;
3347;SDS011;1687;49.540;8.574;2023-04-25T10:46:22;7.37;;;3.60;;
3347;SDS011;1687;49.540;8.574;2023-04-25T10:48:51;9.77;;;4.30;;
3347;SDS011;1687;49.540;8.574;2023-04-25T10:51:31;9.27;;;4.20;;
3347;SDS011;1687;49.540;8.574;2023-04-25T10:53:59;4.90;;;2.70;;
3347;SDS011;1687;49.540;8.574;2023-04-25T10:56:33;9.73;;;3.53;;
3347;SDS011;1687;49.540;8.574;2023-04-25T11:01:43;4.40;;;2.63;;
3347;SDS011;1687;49.540;8.574;2023-04-25T11:04:21;9.00;;;2.57;;
3347;SDS011;1687;49.540;8.574;2023-04-25T11:10:05;11.00;;;2.83;;
3347;SDS011;1687;49.540;8.574;2023-04-25T11:12:31;19.03;;;2.73;;
3347;SDS011;1687;49.540;8.574;2023-04-25T11:17:28;4.57;;;2.20;;
3347;SDS011;1687;49.540;8.574;2023-04-25T11:19:54;7.60;;;2.43;;
3347;SDS011;1687;49.540;8.574;2023-04-25T11:22:21;7.37;;;2.50;;
3347;SDS011;1687;49.540;8.574;2023-04-25T11:24:47;4.70;;;2.97;;
3347;SDS011;1687;49.540;8.574;2023-04-25T11:27:13;5.00;;;2.83;;
3347;SDS011;1687;49.540;8.574;2023-04-25T11:29:40;8.10;;;2.63;;
3347;SDS011;1687;49.540;8.574;2023-04-25T11:32:06;7.57;;;3.23;;
3347;SDS011;1687;49.540;8.574;2023-04-25T11:34:32;4.50;;;2.73;;
3347;SDS011;1687;49.540;8.574;2023-04-25T11:37:00;5.97;;;2.50;;
3347;SDS011;1687;49.540;8.574;2023-04-25T11:39:27;12.73;;;3.80;;
3347;SDS011;1687;49.540;8.574;2023-04-25T11:41:54;7.70;;;2.77;;
3347;SDS011;1687;49.540;8.574;2023-04-25T11:44:20;9.30;;;3.57;;
3347;SDS011;1687;49.540;8.574;2023-04-25T11:46:47;18.23;;;3.67;;
3347;SDS011;1687;49.540;8.574;2023-04-25T11:49:15;6.40;;;2.83;;
3347;SDS011;1687;49.540;8.574;2023-04-25T11:51:44;6.07;;;2.90;;
3347;SDS011;1687;49.540;8.574;2023-04-25T11:54:12;4.00;;;2.40;;
3347;SDS011;1687;49.540;8.574;2023-04-25T11:56:42;5.33;;;2.63;;
3347;SDS011;1687;49.540;8.574;2023-04-25T11:59:09;9.83;;;3.60;;
3347;SDS011;1687;49.540;8.574;2023-04-25T12:01:35;9.20;;;2.70;;
3347;SDS011;1687;49.540;8.574;2023-04-25T12:04:17;5.93;;;3.20;;
3347;SDS011;1687;49.540;8.574;2023-04-25T12:06:45;4.97;;;3.10;;
3347;SDS011;1687;49.540;8.574;2023-04-25T12:09:13;5.20;;;2.73;;
3347;SDS011;1687;49.540;8.574;2023-04-25T12:11:47;8.77;;;3.73;;
3347;SDS011;1687;49.540;8.574;2023-04-25T12:14:23;11.40;;;3.97;;
3347;SDS011;1687;49.540;8.574;2023-04-25T12:16:58;9.20;;;4.17;;
3347;SDS011;1687;49.540;8.574;2023-04-25T12:19:26;9.70;;;3.87;;
3347;SDS011;1687;49.540;8.574;2023-04-25T12:21:58;11.13;;;4.60;;
3347;SDS011;1687;49.540;8.574;2023-04-25T12:24:28;7.90;;;3.40;;
3347;SDS011;1687;49.540;8.574;2023-04-25T12:29:31;7.90;;;4.03;;
3347;SDS011;1687;49.540;8.574;2023-04-25T12:31:58;8.77;;;4.17;;
3347;SDS011;1687;49.540;8.574;2023-04-25T12:34:27;7.77;;;3.93;;
3347;SDS011;1687;49.540;8.574;2023-04-25T12:36:53;7.33;;;3.40;;
3347;SDS011;1687;49.540;8.574;2023-04-25T12:39:20;10.60;;;4.00;;
3347;SDS011;1687;49.540;8.574;2023-04-25T12:41:48;8.37;;;3.97;;
3347;SDS011;1687;49.540;8.574;2023-04-25T12:44:18;9.87;;;3.80;;
3347;SDS011;1687;49.540;8.574;2023-04-25T12:46:45;9.20;;;3.70;;
3347;SDS011;1687;49.540;8.574;2023-04-25T12:49:11;11.73;;;3.43;;
3347;SDS011;1687;49.540;8.574;2023-04-25T12:51:37;7.97;;;3.67;;
3347;SDS011;1687;49.540;8.574;2023-04-25T12:54:04;7.10;;;3.00;;
3347;SDS011;1687;49.540;8.574;2023-04-25T12:56:31;7.23;;;3.13;;
3347;SDS011;1687;49.540;8.574;2023-04-25T12:58:57;6.40;;;2.90;;
3347;SDS011;1687;49.540;8.574;2023-04-25T13:01:23;11.77;;;4.23;;
3347;SDS011;1687;49.540;8.574;2023-04-25T13:03:50;9.90;;;3.63;;
3347;SDS011;1687;49.540;8.574;2023-04-25T13:06:16;11.17;;;4.27;;
3347;SDS011;1687;49.540;8.574;2023-04-25T13:08:43;8.80;;;4.07;;
3347;SDS011;1687;49.540;8.574;2023-04-25T13:11:09;9.87;;;4.90;;
3347;SDS011;1687;49.540;8.574;2023-04-25T13:13:36;12.30;;;6.10;;
3347;SDS011;1687;49.540;8.574;2023-04-25T13:16:02;10.20;;;4.30;;
3347;SDS011;1687;49.540;8.574;2023-04-25T13:18:29;8.43;;;3.77;;
3347;SDS011;1687;49.540;8.574;2023-04-25T13:20:56;9.30;;;4.00;;
3347;SDS011;1687;49.540;8.574;2023-04-25T13:23:24;14.93;;;4.27;;
3347;SDS011;1687;49.540;8.574;2023-04-25T13:25:51;13.00;;;4.30;;
3347;SDS011;1687;49.540;8.574;2023-04-25T13:28:17;14.17;;;4.17;;
3347;SDS011;1687;49.540;8.574;2023-04-25T13:30:43;13.93;;;4.00;;
3347;SDS011;1687;49.540;8.574;2023-04-25T13:33:08;7.87;;;3.93;;
3347;SDS011;1687;49.540;8.574;2023-04-25T13:35:35;15.27;;;4.20;;
3347;SDS011;1687;49.540;8.574;2023-04-25T13:38:02;8.47;;;3.57;;
3347;SDS011;1687;49.540;8.574;2023-04-25T13:40:29;10.80;;;3.77;;
3347;SDS011;1687;49.540;8.574;2023-04-25T13:42:55;6.57;;;3.37;;
3347;SDS011;1687;49.540;8.574;2023-04-25T13:45:21;13.30;;;5.13;;
3347;SDS011;1687;49.540;8.574;2023-04-25T13:47:47;9.60;;;3.93;;
3347;SDS011;1687;49.540;8.574;2023-04-25T13:50:13;8.90;;;4.10;;
3347;SDS011;1687;49.540;8.574;2023-04-25T13:52:39;7.53;;;4.30;;
3347;SDS011;1687;49.540;8.574;2023-04-25T13:55:06;8.00;;;4.33;;
3347;SDS011;1687;49.540;8.574;2023-04-25T13:57:33;11.23;;;4.57;;
3347;SDS011;1687;49.540;8.574;2023-04-25T14:00:00;6.10;;;3.67;;
3347;SDS011;1687;49.540;8.574;2023-04-25T14:02:34;11.57;;;4.90;;
3347;SDS011;1687;49.540;8.574;2023-04-25T14:05:00;9.40;;;4.63;;
3347;SDS011;1687;49.540;8.574;2023-04-25T14:07:28;10.73;;;5.23;;
3347;SDS011;1687;49.540;8.574;2023-04-25T14:09:53;9.30;;;3.43;;
3347;SDS011;1687;49.540;8.574;2023-04-25T14:12:19;9.90;;;4.70;;
3347;SDS011;1687;49.540;8.574;2023-04-25T14:14:45;10.33;;;4.23;;
3347;SDS011;1687;49.540;8.574;2023-04-25T14:17:11;12.33;;;4.70;;
3347;SDS011;1687;49.540;8.574;2023-04-25T14:19:36;12.93;;;3.93;;
3347;SDS011;1687;49.540;8.574;2023-04-25T14:22:03;7.20;;;3.20;;
3347;SDS011;1687;49.540;8.574;2023-04-25T14:24:29;6.37;;;3.50;;
3347;SDS011;1687;49.540;8.574;2023-04-25T14:26:55;16.10;;;4.97;;
3347;SDS011;1687;49.540;8.574;2023-04-25T14:29:21;5.70;;;3.80;;
3347;SDS011;1687;49.540;8.574;2023-04-25T14:31:47;6.57;;;3.60;;
3347;SDS011;1687;49.540;8.574;2023-04-25T14:34:12;9.43;;;4.10;;
3347;SDS011;1687;49.540;8.574;2023-04-25T14:36:38;6.13;;;3.37;;
3347;SDS011;1687;49.540;8.574;2023-04-25T14:39:04;22.73;;;3.67;;
3347;SDS011;1687;49.540;8.574;2023-04-25T14:41:30;6.40;;;3.93;;
3347;SDS011;1687;49.540;8.574;2023-04-25T14:43:55;8.70;;;4.50;;
3347;SDS011;1687;49.540;8.574;2023-04-25T14:46:21;8.80;;;3.80;;
3347;SDS011;1687;49.540;8.574;2023-04-25T14:48:48;7.13;;;2.73;;
3347;SDS011;1687;49.540;8.574;2023-04-25T14:51:14;8.67;;;4.27;;
3347;SDS011;1687;49.540;8.574;2023-04-25T14:53:41;8.00;;;4.03;;
3347;SDS011;1687;49.540;8.574;2023-04-25T14:56:07;6.77;;;3.67;;
3347;SDS011;1687;49.540;8.574;2023-04-25T14:58:33;11.00;;;3.80;;
3347;SDS011;1687;49.540;8.574;2023-04-25T15:00:59;18.70;;;4.70;;
3347;SDS011;1687;49.540;8.574;2023-04-25T15:03:25;17.20;;;3.33;;
3347;SDS011;1687;49.540;8.574;2023-04-25T15:05:52;8.83;;;3.83;;
3347;SDS011;1687;49.540;8.574;2023-04-25T15:08:20;11.13;;;4.93;;
3347;SDS011;1687;49.540;8.574;2023-04-25T15:10:45;11.97;;;3.60;;
3347;SDS011;1687;49.540;8.574;2023-04-25T15:13:11;8.60;;;4.00;;
3347;SDS011;1687;49.540;8.574;2023-04-25T15:15:37;10.50;;;3.80;;
3347;SDS011;1687;49.540;8.574;2023-04-25T15:18:03;8.80;;;3.10;;
3347;SDS011;1687;49.540;8.574;2023-04-25T15:20:29;5.93;;;2.97;;